createdAt,value
2023-04-19T00:02:03.768Z,5.80
2023-04-19T00:04:31.305Z,5.70
2023-04-19T00:06:58.645Z,5.70
2023-04-19T00:09:25.483Z,5.70
2023-04-19T00:11:52.790Z,5.70
2023-04-19T00:14:21.517Z,5.70
2023-04-19T00:16:48.389Z,5.60
2023-04-19T00:19:15.247Z,5.70
2023-04-19T00:21:42.074Z,5.60
2023-04-19T00:24:08.882Z,5.70
2023-04-19T00:26:37.159Z,5.70
2023-04-19T00:29:03.996Z,5.70
2023-04-19T00:31:30.937Z,5.70
2023-04-19T00:33:57.825Z,5.70
2023-04-19T00:36:24.859Z,5.70
2023-04-19T00:38:51.631Z,5.70
2023-04-19T00:41:18.469Z,5.80
2023-04-19T00:43:45.255Z,5.90
2023-04-19T00:46:12.109Z,5.90
2023-04-19T00:48:39.015Z,5.90
2023-04-19T00:51:06.075Z,5.90
2023-04-19T00:53:32.839Z,5.80
2023-04-19T00:56:02.206Z,5.80
2023-04-19T00:58:31.520Z,5.70
2023-04-19T01:00:58.376Z,5.70
2023-04-19T01:03:27.602Z,5.70
2023-04-19T01:05:55.306Z,5.70
2023-04-19T01:08:22.075Z,5.60
2023-04-19T01:10:48.871Z,5.60
2023-04-19T01:13:15.718Z,5.60
2023-04-19T01:15:42.534Z,5.60
2023-04-19T01:18:09.311Z,5.60
2023-04-19T01:20:36.125Z,5.60
2023-04-19T01:23:02.934Z,5.60
2023-04-19T01:25:29.993Z,5.60
2023-04-19T01:27:56.815Z,5.60
2023-04-19T01:30:23.543Z,5.60
2023-04-19T01:32:50.610Z,5.60
2023-04-19T01:35:17.497Z,5.60
2023-04-19T01:37:44.263Z,5.60
2023-04-19T01:40:11.247Z,5.50
2023-04-19T01:42:38.009Z,5.50
2023-04-19T01:45:05.096Z,5.50
2023-04-19T01:47:31.889Z,5.50
2023-04-19T01:49:58.679Z,5.40
2023-04-19T01:52:25.409Z,5.40
2023-04-19T01:54:52.173Z,5.30
2023-04-19T01:57:19.089Z,5.30
2023-04-19T01:59:45.875Z,5.30
2023-04-19T02:02:12.704Z,5.30
2023-04-19T02:04:39.654Z,5.10
2023-04-19T02:07:06.570Z,5.10
2023-04-19T02:09:37.134Z,5.00
2023-04-19T02:12:04.361Z,5.00
2023-04-19T02:14:31.933Z,5.00
2023-04-19T02:16:58.708Z,5.00
2023-04-19T02:19:25.542Z,5.00
2023-04-19T02:21:53.734Z,5.00
2023-04-19T02:24:20.535Z,5.00
2023-04-19T02:26:47.373Z,5.00
2023-04-19T02:29:14.303Z,5.00
2023-04-19T02:31:41.284Z,5.00
2023-04-19T02:34:08.139Z,5.00
2023-04-19T02:36:34.895Z,5.00
2023-04-19T02:39:01.685Z,5.00
2023-04-19T02:41:28.517Z,5.00
2023-04-19T02:43:56.298Z,5.00
2023-04-19T02:46:23.068Z,5.10
2023-04-19T02:48:49.923Z,5.10
2023-04-19T02:51:17.585Z,5.10
2023-04-19T02:53:44.359Z,5.10
2023-04-19T02:56:11.126Z,5.20
2023-04-19T02:58:37.858Z,5.20
2023-04-19T03:01:04.718Z,5.20
2023-04-19T03:03:31.803Z,5.20
2023-04-19T03:05:58.642Z,5.20
2023-04-19T03:08:25.559Z,5.10
2023-04-19T03:10:52.341Z,5.20
2023-04-19T03:13:19.079Z,5.10
2023-04-19T03:15:45.863Z,5.10
2023-04-19T03:18:13.009Z,5.10
2023-04-19T03:20:39.817Z,5.10
2023-04-19T03:23:06.556Z,5.00
2023-04-19T03:25:33.388Z,5.00
2023-04-19T03:28:00.213Z,5.00
2023-04-19T03:30:26.958Z,5.00
2023-04-19T03:32:54.015Z,4.90
2023-04-19T03:35:21.214Z,4.90
2023-04-19T03:37:47.976Z,5.00
2023-04-19T03:40:14.766Z,4.90
2023-04-19T03:42:41.551Z,4.90
2023-04-19T03:45:08.573Z,4.90
2023-04-19T03:47:35.468Z,4.80
2023-04-19T03:50:02.260Z,4.80
2023-04-19T03:52:28.997Z,4.80
2023-04-19T03:54:55.758Z,4.80
2023-04-19T03:57:22.481Z,4.80
2023-04-19T03:59:49.213Z,4.80
2023-04-19T04:02:16.135Z,4.80
2023-04-19T04:04:43.124Z,4.80
2023-04-19T04:07:10.058Z,4.80
2023-04-19T04:09:37.254Z,4.80
2023-04-19T04:12:04.124Z,4.80
2023-04-19T04:14:30.851Z,4.80
2023-04-19T04:16:57.647Z,4.80
2023-04-19T04:19:24.370Z,4.80
2023-04-19T04:21:51.092Z,4.90
2023-04-19T04:24:18.038Z,4.80
2023-04-19T04:26:44.831Z,4.90
2023-04-19T04:29:11.626Z,4.90
2023-04-19T04:31:38.444Z,4.90
2023-04-19T04:34:05.250Z,4.80
2023-04-19T04:36:32.074Z,4.80
2023-04-19T04:39:02.003Z,4.80
2023-04-19T04:41:31.493Z,4.80
2023-04-19T04:44:11.605Z,4.70
2023-04-19T04:46:45.285Z,4.70
2023-04-19T04:49:12.399Z,4.60
2023-04-19T04:51:39.193Z,4.60
2023-04-19T04:54:05.948Z,4.60
2023-04-19T04:56:32.746Z,4.60
2023-04-19T04:58:59.496Z,4.60
2023-04-19T05:01:26.295Z,4.60
2023-04-19T05:03:53.130Z,4.60
2023-04-19T05:06:19.882Z,4.60
2023-04-19T05:08:46.689Z,4.60
2023-04-19T05:11:13.473Z,4.60
2023-04-19T05:13:40.293Z,4.60
2023-04-19T05:16:07.173Z,4.50
2023-04-19T05:18:33.911Z,4.50
2023-04-19T05:21:00.904Z,4.60
2023-04-19T05:23:27.720Z,4.50
2023-04-19T05:25:54.443Z,4.50
2023-04-19T05:28:21.280Z,4.50
2023-04-19T05:30:48.076Z,4.50
2023-04-19T05:33:14.813Z,4.60
2023-04-19T05:35:41.559Z,4.60
2023-04-19T05:38:08.318Z,4.60
2023-04-19T05:40:35.814Z,4.60
2023-04-19T05:43:02.554Z,4.60
2023-04-19T05:45:29.360Z,4.60
2023-04-19T05:47:56.440Z,4.70
2023-04-19T05:50:23.229Z,4.70
2023-04-19T05:52:50.137Z,4.60
2023-04-19T05:55:18.139Z,4.60
2023-04-19T05:57:44.917Z,4.60
2023-04-19T06:00:11.914Z,4.50
2023-04-19T06:02:38.885Z,4.50
2023-04-19T06:05:10.193Z,4.50
2023-04-19T06:07:43.110Z,4.50
2023-04-19T06:10:10.620Z,4.50
2023-04-19T06:12:37.370Z,4.50
2023-04-19T06:15:04.528Z,4.50
2023-04-19T06:17:31.661Z,4.60
2023-04-19T06:19:58.452Z,4.60
2023-04-19T06:22:25.233Z,4.60
2023-04-19T06:24:51.971Z,4.70
2023-04-19T06:27:18.747Z,4.70
2023-04-19T06:29:45.636Z,4.80
2023-04-19T06:32:12.452Z,4.80
2023-04-19T06:34:39.225Z,4.90
2023-04-19T06:37:05.998Z,4.90
2023-04-19T06:39:32.798Z,4.90
2023-04-19T06:41:59.597Z,5.00
2023-04-19T06:44:26.951Z,5.10
2023-04-19T06:46:53.688Z,5.20
2023-04-19T06:49:20.628Z,5.30
2023-04-19T06:51:47.656Z,5.30
2023-04-19T06:54:14.539Z,5.40
2023-04-19T06:56:48.268Z,5.50
2023-04-19T06:59:17.901Z,5.60
2023-04-19T07:01:45.123Z,5.60
2023-04-19T07:04:12.598Z,5.80
2023-04-19T07:06:39.662Z,5.90
2023-04-19T07:09:07.190Z,6.00
2023-04-19T07:11:34.125Z,6.20
2023-04-19T07:14:01.194Z,6.20
2023-04-19T07:16:28.444Z,6.30
2023-04-19T07:18:55.474Z,6.30
2023-04-19T07:21:22.519Z,6.40
2023-04-19T07:23:49.257Z,6.40
2023-04-19T07:26:16.126Z,6.50
2023-04-19T07:28:42.960Z,6.60
2023-04-19T07:31:14.713Z,6.70
2023-04-19T07:33:41.576Z,6.80
2023-04-19T07:36:08.370Z,6.90
2023-04-19T07:38:35.101Z,6.90
2023-04-19T07:41:02.008Z,7.00
2023-04-19T07:43:29.880Z,7.10
2023-04-19T07:45:56.751Z,7.20
2023-04-19T07:48:23.555Z,7.30
2023-04-19T07:50:50.551Z,7.40
2023-04-19T07:53:18.346Z,7.50
2023-04-19T07:55:45.244Z,7.50
2023-04-19T07:58:12.017Z,7.60
2023-04-19T08:00:38.756Z,7.80
2023-04-19T08:03:05.808Z,7.70
2023-04-19T08:05:33.009Z,7.80
2023-04-19T08:07:59.816Z,7.90
2023-04-19T08:10:28.826Z,8.00
2023-04-19T08:13:04.340Z,8.20
2023-04-19T08:18:05.081Z,8.40
2023-04-19T08:20:32.542Z,8.50
2023-04-19T08:23:02.573Z,8.70
2023-04-19T08:25:37.514Z,8.80
2023-04-19T08:28:04.838Z,9.10
2023-04-19T08:30:31.771Z,9.20
2023-04-19T08:32:58.513Z,9.40
2023-04-19T08:35:25.430Z,9.50
2023-04-19T08:37:52.178Z,9.80
2023-04-19T08:40:19.009Z,10.10
2023-04-19T08:42:46.036Z,10.40
2023-04-19T08:47:56.148Z,10.90
2023-04-19T08:50:33.472Z,11.70
2023-04-19T08:55:32.391Z,12.10
2023-04-19T08:57:59.184Z,12.30
2023-04-19T09:00:26.044Z,12.50
2023-04-19T09:02:54.658Z,12.70
2023-04-19T09:05:22.136Z,12.70
2023-04-19T09:07:49.071Z,12.80
2023-04-19T09:10:17.269Z,13.00
2023-04-19T09:12:44.973Z,13.30
2023-04-19T09:15:11.782Z,13.50
2023-04-19T09:17:39.308Z,13.60
2023-04-19T09:20:06.807Z,13.70
2023-04-19T09:22:33.843Z,14.00
2023-04-19T09:27:30.864Z,14.30
2023-04-19T09:29:59.156Z,14.20
2023-04-19T09:32:26.536Z,14.20
2023-04-19T09:34:53.554Z,14.10
2023-04-19T09:37:33.016Z,13.60
2023-04-19T09:40:23.678Z,13.70
2023-04-19T09:45:45.179Z,14.10
2023-04-19T09:48:12.866Z,14.40
2023-04-19T09:51:02.547Z,15.00
2023-04-19T09:53:34.493Z,15.20
2023-04-19T09:56:03.413Z,15.30
2023-04-19T10:01:13.425Z,14.80
2023-04-19T10:03:42.629Z,14.90
2023-04-19T10:06:14.161Z,14.50
2023-04-19T10:08:48.347Z,14.10
2023-04-19T10:11:15.335Z,14.40
2023-04-19T10:13:43.487Z,14.40
2023-04-19T10:16:18.809Z,14.80
2023-04-19T10:18:46.187Z,15.20
2023-04-19T10:21:13.602Z,14.90
2023-04-19T10:23:40.494Z,15.00
2023-04-19T10:26:07.420Z,15.20
2023-04-19T10:28:35.917Z,14.80
2023-04-19T10:31:04.104Z,14.90
2023-04-19T10:33:31.987Z,14.70
2023-04-19T10:35:59.746Z,14.70
2023-04-19T10:38:36.990Z,14.80
2023-04-19T10:41:05.503Z,14.60
2023-04-19T10:43:34.302Z,14.30
2023-04-19T10:46:02.567Z,14.80
2023-04-19T10:48:35.698Z,14.70
2023-04-19T10:51:11.117Z,14.70
2023-04-19T10:53:53.050Z,14.90
2023-04-19T10:56:21.187Z,14.80
2023-04-19T10:59:00.354Z,15.20
2023-04-19T11:01:46.144Z,15.40
2023-04-19T11:04:14.021Z,14.90
2023-04-19T11:06:53.560Z,15.40
2023-04-19T11:09:27.873Z,15.40
2023-04-19T11:11:57.462Z,16.00
2023-04-19T11:14:24.301Z,16.00
2023-04-19T11:16:51.196Z,16.20
2023-04-19T11:19:18.835Z,15.90
2023-04-19T11:21:46.562Z,16.20
2023-04-19T11:26:43.089Z,16.40
2023-04-19T11:29:10.068Z,15.90
2023-04-19T11:31:36.931Z,15.80
2023-04-19T11:34:03.750Z,16.20
2023-04-19T11:36:32.145Z,16.10
2023-04-19T11:38:58.912Z,16.10
2023-04-19T11:41:25.870Z,16.20
2023-04-19T11:43:52.693Z,16.50
2023-04-19T11:46:19.501Z,16.00
2023-04-19T11:48:53.325Z,15.90
2023-04-19T11:51:20.554Z,16.20
2023-04-19T11:53:47.399Z,16.20
2023-04-19T11:56:15.489Z,16.40
2023-04-19T11:58:48.300Z,16.20
2023-04-19T12:01:15.359Z,16.30
2023-04-19T12:03:52.459Z,16.20
2023-04-19T12:06:22.955Z,16.40
2023-04-19T12:08:51.498Z,16.30
2023-04-19T12:11:19.398Z,16.60
2023-04-19T12:13:46.291Z,16.30
2023-04-19T12:16:13.470Z,16.70
2023-04-19T12:18:49.250Z,17.00
2023-04-19T12:21:29.476Z,16.90
2023-04-19T12:24:00.132Z,17.10
2023-04-19T12:26:28.426Z,17.10
2023-04-19T12:28:55.720Z,17.10
2023-04-19T12:31:22.652Z,16.20
2023-04-19T12:33:49.513Z,16.20
2023-04-19T12:36:16.589Z,16.10
2023-04-19T12:38:43.486Z,16.20
2023-04-19T12:41:10.550Z,16.30
2023-04-19T12:43:37.352Z,16.50
2023-04-19T12:46:05.077Z,16.70
2023-04-19T12:48:31.867Z,16.90
2023-04-19T12:50:58.646Z,17.20
2023-04-19T12:53:25.405Z,17.60
2023-04-19T12:55:52.144Z,17.60
2023-04-19T12:58:18.919Z,17.50
2023-04-19T13:00:45.738Z,17.20
2023-04-19T13:03:12.822Z,17.60
2023-04-19T13:05:39.728Z,17.40
2023-04-19T13:08:06.619Z,17.50
2023-04-19T13:10:33.444Z,17.60
2023-04-19T13:13:00.781Z,17.90
2023-04-19T13:15:28.722Z,17.70
2023-04-19T13:17:55.701Z,17.50
2023-04-19T13:20:22.495Z,17.30
2023-04-19T13:22:49.268Z,17.60
2023-04-19T13:25:16.001Z,17.20
2023-04-19T13:27:42.758Z,17.00
2023-04-19T13:30:09.862Z,16.90
2023-04-19T13:32:36.668Z,16.40
2023-04-19T13:35:03.493Z,15.70
2023-04-19T13:37:30.278Z,15.40
2023-04-19T13:40:10.611Z,15.40
2023-04-19T13:42:37.903Z,14.90
2023-04-19T13:45:04.969Z,14.00
2023-04-19T13:47:31.806Z,13.80
2023-04-19T13:49:58.637Z,13.80
2023-04-19T13:52:25.477Z,13.30
2023-04-19T13:54:52.246Z,13.00
2023-04-19T13:57:18.990Z,13.10
2023-04-19T13:59:45.796Z,12.90
2023-04-19T14:02:12.663Z,12.90
2023-04-19T14:04:39.510Z,12.60
2023-04-19T14:07:06.492Z,12.60
2023-04-19T14:09:33.221Z,12.60
2023-04-19T14:12:00.383Z,12.80
2023-04-19T14:14:27.130Z,12.90
2023-04-19T14:16:53.952Z,13.00
2023-04-19T14:19:20.750Z,13.10
2023-04-19T14:21:47.484Z,13.00
2023-04-19T14:24:14.391Z,12.80
2023-04-19T14:26:41.422Z,12.70
2023-04-19T14:29:08.154Z,12.70
2023-04-19T14:31:35.056Z,12.80
2023-04-19T14:34:01.977Z,12.50
2023-04-19T14:36:28.717Z,12.60
2023-04-19T14:38:55.430Z,12.60
2023-04-19T14:41:22.956Z,12.70
2023-04-19T14:43:49.837Z,12.60
2023-04-19T14:46:16.633Z,12.60
2023-04-19T14:48:43.412Z,12.50
2023-04-19T14:51:10.128Z,12.60
2023-04-19T14:53:36.856Z,12.60
2023-04-19T14:56:05.820Z,12.50
2023-04-19T14:58:32.572Z,12.60
2023-04-19T15:00:59.469Z,12.60
2023-04-19T15:03:26.476Z,12.70
2023-04-19T15:05:53.591Z,12.70
2023-04-19T15:08:30.384Z,12.60
2023-04-19T15:10:57.717Z,12.50
2023-04-19T15:13:24.658Z,12.20
2023-04-19T15:15:51.528Z,12.10
2023-04-19T15:18:18.338Z,12.10
2023-04-19T15:20:45.104Z,12.00
2023-04-19T15:23:11.837Z,12.00
2023-04-19T15:25:38.602Z,11.80
2023-04-19T15:28:05.594Z,11.80
2023-04-19T15:30:32.325Z,11.80
2023-04-19T15:32:59.161Z,11.90
2023-04-19T15:35:25.898Z,11.90
2023-04-19T15:37:52.631Z,11.80
2023-04-19T15:40:19.468Z,11.80
2023-04-19T15:42:46.441Z,11.60
2023-04-19T15:45:13.247Z,11.60
2023-04-19T15:47:40.148Z,11.50
2023-04-19T15:50:07.201Z,11.40
2023-04-19T15:52:33.994Z,11.20
2023-04-19T15:55:00.770Z,11.00
2023-04-19T15:57:27.511Z,11.20
2023-04-19T15:59:54.278Z,11.40
2023-04-19T16:02:21.426Z,11.40
2023-04-19T16:04:48.509Z,11.40
2023-04-19T16:07:15.378Z,11.30
2023-04-19T16:09:42.147Z,11.50
2023-04-19T16:12:08.869Z,11.50
2023-04-19T16:14:35.847Z,11.50
2023-04-19T16:17:02.621Z,11.40
2023-04-19T16:19:29.371Z,11.30
2023-04-19T16:21:56.887Z,11.20
2023-04-19T16:24:23.662Z,11.30
2023-04-19T16:26:50.466Z,11.30
2023-04-19T16:29:17.497Z,11.20
2023-04-19T16:31:44.473Z,11.30
2023-04-19T16:34:11.311Z,11.30
2023-04-19T16:36:38.123Z,11.30
2023-04-19T16:39:04.880Z,11.40
2023-04-19T16:41:31.637Z,11.40
2023-04-19T16:43:58.806Z,11.30
2023-04-19T16:48:52.934Z,11.60
2023-04-19T16:51:19.660Z,11.90
2023-04-19T16:53:47.379Z,12.00
2023-04-19T16:56:16.551Z,12.30
2023-04-19T16:58:43.312Z,12.40
2023-04-19T17:01:10.261Z,12.60
2023-04-19T17:03:37.270Z,12.70
2023-04-19T17:06:04.225Z,12.60
2023-04-19T17:08:31.255Z,13.00
2023-04-19T17:10:58.040Z,12.80
2023-04-19T17:13:24.807Z,12.80
2023-04-19T17:15:51.614Z,13.00
2023-04-19T17:18:18.416Z,12.80
2023-04-19T17:20:45.783Z,13.00
2023-04-19T17:23:12.793Z,12.90
2023-04-19T17:25:39.813Z,12.70
2023-04-19T17:28:06.609Z,12.40
2023-04-19T17:30:33.569Z,12.40
2023-04-19T17:33:00.335Z,12.20
2023-04-19T17:35:27.318Z,12.10
2023-04-19T17:37:54.406Z,11.90
2023-04-19T17:40:21.271Z,11.60
2023-04-19T17:42:48.010Z,11.40
2023-04-19T17:45:14.827Z,11.30
2023-04-19T17:47:42.042Z,11.20
2023-04-19T17:50:10.494Z,11.20
2023-04-19T17:52:37.501Z,11.10
2023-04-19T17:55:04.825Z,11.10
2023-04-19T17:57:33.724Z,10.90
2023-04-19T18:00:01.506Z,10.80
2023-04-19T18:02:28.539Z,10.80
2023-04-19T18:04:55.638Z,10.70
2023-04-19T18:07:25.234Z,10.50
2023-04-19T18:09:51.998Z,10.60
2023-04-19T18:12:18.760Z,10.60
2023-04-19T18:14:45.594Z,10.40
2023-04-19T18:17:12.400Z,10.40
2023-04-19T18:19:39.154Z,10.40
2023-04-19T18:22:05.928Z,10.40
2023-04-19T18:24:32.713Z,10.30
2023-04-19T18:26:59.913Z,10.30
2023-04-19T18:29:26.732Z,10.30
2023-04-19T18:31:53.793Z,10.30
2023-04-19T18:34:21.629Z,10.20
2023-04-19T18:36:48.396Z,10.10
2023-04-19T18:39:15.527Z,10.10
2023-04-19T18:41:42.664Z,10.10
2023-04-19T18:46:39.054Z,9.90
2023-04-19T18:49:05.790Z,10.00
2023-04-19T18:51:32.984Z,10.00
2023-04-19T18:53:59.787Z,10.00
2023-04-19T18:57:03.768Z,9.90
2023-04-19T18:59:13.283Z,9.90
2023-04-19T19:01:40.610Z,9.90
2023-04-19T19:04:31.625Z,9.80
2023-04-19T19:06:54.666Z,9.80
2023-04-19T19:09:23.620Z,9.80
2023-04-19T19:11:56.695Z,9.70
2023-04-19T19:14:23.861Z,9.70
2023-04-19T19:16:52.286Z,9.60
2023-04-19T19:19:22.569Z,9.70
2023-04-19T19:21:49.623Z,9.60
2023-04-19T19:24:16.375Z,9.60
2023-04-19T19:26:43.119Z,9.50
2023-04-19T19:29:10.711Z,9.40
2023-04-19T19:31:37.554Z,9.40
2023-04-19T19:34:23.468Z,9.30
2023-04-19T19:36:51.745Z,9.40
2023-04-19T19:39:18.739Z,9.30
2023-04-19T19:44:15.392Z,9.20
2023-04-19T19:46:42.210Z,9.20
2023-04-19T19:49:12.808Z,9.20
2023-04-19T19:51:56.859Z,9.10
2023-04-19T19:54:25.667Z,9.10
2023-04-19T19:59:29.155Z,9.00
2023-04-19T20:01:57.299Z,8.90
2023-04-19T20:04:24.323Z,9.00
2023-04-19T20:09:22.010Z,9.00
2023-04-19T20:11:48.810Z,9.00
2023-04-19T20:14:15.548Z,9.00
2023-04-19T20:16:42.356Z,8.90
2023-04-19T20:19:12.883Z,8.80
2023-04-19T20:21:39.602Z,8.80
2023-04-19T20:24:06.539Z,8.80
2023-04-19T20:26:33.465Z,8.70
2023-04-19T20:29:00.930Z,8.70
2023-04-19T20:31:27.966Z,8.80
2023-04-19T20:33:54.833Z,8.80
2023-04-19T20:36:24.745Z,8.70
2023-04-19T20:38:51.557Z,8.70
2023-04-19T20:41:18.420Z,8.70
2023-04-19T20:43:45.234Z,8.80
2023-04-19T20:46:12.095Z,8.80
2023-04-19T20:48:38.925Z,8.80
2023-04-19T20:51:05.771Z,8.80
2023-04-19T20:53:32.554Z,8.80
2023-04-19T20:55:59.346Z,8.70
2023-04-19T20:58:26.123Z,8.80
2023-04-19T21:00:53.039Z,8.70
2023-04-19T21:03:19.936Z,8.60
2023-04-19T21:05:46.787Z,8.60
2023-04-19T21:08:15.164Z,8.60
2023-04-19T21:10:41.928Z,8.50
2023-04-19T21:13:08.663Z,8.50
2023-04-19T21:15:37.024Z,8.40
2023-04-19T21:18:03.882Z,8.40
2023-04-19T21:20:30.686Z,8.30
2023-04-19T21:22:57.450Z,8.40
2023-04-19T21:25:24.174Z,8.40
2023-04-19T21:27:51.171Z,8.30
2023-04-19T21:30:18.061Z,8.30
2023-04-19T21:32:44.858Z,8.40
2023-04-19T21:35:11.723Z,8.40
2023-04-19T21:37:38.583Z,8.30
2023-04-19T21:40:05.801Z,8.30
2023-04-19T21:42:32.587Z,8.30
2023-04-19T21:44:59.323Z,8.20
2023-04-19T21:47:26.111Z,8.20
2023-04-19T21:49:53.437Z,8.20
2023-04-19T21:52:21.252Z,8.20
2023-04-19T21:54:48.791Z,8.20
2023-04-19T21:57:17.634Z,8.30
2023-04-19T21:59:44.361Z,8.20
2023-04-19T22:02:11.306Z,8.20
2023-04-19T22:04:39.638Z,8.10
2023-04-19T22:07:07.703Z,8.20
2023-04-19T22:09:34.498Z,8.20
2023-04-19T22:12:01.879Z,8.20
2023-04-19T22:14:30.895Z,8.10
2023-04-19T22:16:59.849Z,8.20
2023-04-19T22:19:26.664Z,8.10
2023-04-19T22:21:53.642Z,8.20
2023-04-19T22:24:21.892Z,8.20
2023-04-19T22:26:50.164Z,8.10
2023-04-19T22:29:17.447Z,8.10
2023-04-19T22:31:44.369Z,8.20
2023-04-19T22:34:11.133Z,8.10
2023-04-19T22:36:37.878Z,8.10
2023-04-19T22:39:04.899Z,8.20
2023-04-19T22:41:32.955Z,8.10
2023-04-19T22:44:00.249Z,8.10
2023-04-19T22:46:27.335Z,8.10
2023-04-19T22:48:56.107Z,8.10
2023-04-19T22:51:24.352Z,8.10
2023-04-19T22:53:51.179Z,8.00
2023-04-19T22:56:17.982Z,8.00
2023-04-19T22:58:44.739Z,7.90
2023-04-19T23:01:11.546Z,7.90
2023-04-19T23:03:38.378Z,7.80
2023-04-19T23:06:05.268Z,7.80
2023-04-19T23:08:33.458Z,7.70
2023-04-19T23:11:00.465Z,7.70
2023-04-19T23:13:27.230Z,7.60
2023-04-19T23:15:54.558Z,7.60
2023-04-19T23:18:21.407Z,7.50
2023-04-19T23:20:48.156Z,7.50
2023-04-19T23:23:15.064Z,7.50
2023-04-19T23:25:42.141Z,7.40
2023-04-19T23:28:11.080Z,7.50
2023-04-19T23:30:39.303Z,7.50
2023-04-19T23:33:06.266Z,7.50
2023-04-19T23:35:33.132Z,7.50
2023-04-19T23:37:59.873Z,7.50
2023-04-19T23:40:26.643Z,7.50
2023-04-19T23:42:53.394Z,7.60
2023-04-19T23:45:20.392Z,7.60
2023-04-19T23:47:47.187Z,7.50
2023-04-19T23:50:13.985Z,7.60
2023-04-19T23:52:41.005Z,7.60
2023-04-19T23:55:08.034Z,7.60
2023-04-19T23:57:35.856Z,7.60
